Time;durP1;ratioP1;P1;durP2;ratioP2;P2;SDS_P1;SDS_P2;PMS_P1;PMS_P2;Temp;Humidity;BMP_temperature;BMP_pressure;BME280_temperature;BME280_humidity;BME280_pressure;Samples;Min_cycle;Max_cycle;Signal;HPM_P1;HPM_P2
2022/02/18 00:00:31;;;;;;;58.20;34.90;;;;;;;;;;5055234;28;20451;-67
2022/02/18 00:02:57;;;;;;;68.80;40.75;;;333.60;2278.40;;;;;;5055117;28;20120;-67
2022/02/18 00:05:23;;;;;;;75.50;47.83;;;;;;;;;;5054857;28;20122;-68
2022/02/18 00:07:49;;;;;;;66.95;42.05;;;;;;;;;;5048284;28;20104;-65
2022/02/18 00:10:16;;;;;;;81.45;49.08;;;;;;;;;;5053264;28;20028;-66
2022/02/18 00:12:42;;;;;;;81.70;46.08;;;;;;;;;;5035140;28;20479;-68
2022/02/18 00:15:08;;;;;;;103.30;63.80;;;;;;;;;;5053925;28;20037;-67
2022/02/18 00:17:34;;;;;;;82.32;50.28;;;;;;;;;;5054090;28;20074;-70
2022/02/18 00:20:00;;;;;;;99.82;58.22;;;;;;;;;;5054261;28;20390;-64
2022/02/18 00:22:28;;;;;;;66.80;43.42;;;333.60;2329.60;;;;;;5053522;28;20041;-67
2022/02/18 00:24:54;;;;;;;71.22;43.55;;;333.40;2329.60;;;;;;5054439;28;20475;-69
2022/02/18 00:27:19;;;;;;;76.03;45.85;;;333.30;2329.60;;;;;;5049352;28;20071;-68
2022/02/18 00:29:46;;;;;;;61.22;41.38;;;;;;;;;;5043904;28;20029;-67
2022/02/18 00:32:12;;;;;;;68.50;47.03;;;;;;;;;;5034195;28;20024;-66
2022/02/18 00:34:39;;;;;;;98.20;69.88;;;;;;;;;;5051345;28;20388;-67
2022/02/18 00:37:05;;;;;;;76.63;59.00;;;;;;;;;;5053802;28;20028;-69
2022/02/18 00:39:35;;;;;;;59.38;43.33;;;;;;;;;;5036171;28;20021;-66
2022/02/18 00:42:01;;;;;;;37.20;24.63;;;;;;;;;;5026879;28;20022;-66
2022/02/18 00:44:28;;;;;;;33.10;19.90;;;;;;;;;;5043089;28;20082;-69
2022/02/18 00:46:55;;;;;;;11.18;7.57;;;;;;;;;;5048645;28;20020;-69
2022/02/18 00:49:21;;;;;;;16.42;8.57;;;;;;;;;;5031611;28;20438;-69
2022/02/18 00:51:48;;;;;;;8.98;5.28;;;;;;;;;;5052993;28;20025;-71
2022/02/18 00:54:14;;;;;;;8.85;5.13;;;;;;;;;;5053195;28;20029;-70
2022/02/18 00:56:41;;;;;;;10.52;5.68;;;;;;;;;;5053357;28;20025;-70
2022/02/18 00:59:07;;;;;;;10.60;5.30;;;;;;;;;;5053286;28;20051;-71
2022/02/18 01:01:34;;;;;;;18.70;8.40;;;;;;;;;;5053024;28;20467;-70
2022/02/18 01:04:00;;;;;;;12.32;6.05;;;;;;;;;;5053249;28;20028;-71
2022/02/18 01:06:26;;;;;;;10.50;6.45;;;;;;;;;;5053312;28;20021;-73
2022/02/18 01:08:53;;;;;;;16.90;7.20;;;;;;;;;;5053600;28;20044;-71
2022/02/18 01:11:19;;;;;;;12.40;7.38;;;;;;;;;;5053542;28;20523;-70
2022/02/18 01:13:45;;;;;;;26.80;11.98;;;;;;;;;;5053460;28;20104;-70
2022/02/18 01:16:12;;;;;;;17.80;12.82;;;;;;;;;;5053398;28;20072;-69
2022/02/18 01:18:38;;;;;;;20.02;11.52;;;;;;;;;;5053798;28;20025;-71
2022/02/18 01:21:04;;;;;;;8.75;5.25;;;;;;;;;;5053263;28;20035;-69
2022/02/18 01:23:30;;;;;;;17.38;9.73;;;;;;;;;;5053311;28;20131;-71
2022/02/18 01:25:56;;;;;;;14.43;8.50;;;;;;;;;;5053363;28;20031;-69
2022/02/18 01:28:22;;;;;;;16.05;10.68;;;;;;;;;;5053229;28;20487;-69
2022/02/18 01:30:49;;;;;;;18.58;12.23;;;;;;;;;;5053312;28;20047;-70
2022/02/18 01:33:15;;;;;;;19.30;10.80;;;;;;;;;;5053085;28;20029;-71
2022/02/18 01:35:41;;;;;;;20.52;11.93;;;;;;;;;;5053036;28;20048;-70
2022/02/18 01:38:07;;;;;;;25.17;16.95;;;;;;;;;;5035113;28;20025;-70
2022/02/18 01:40:34;;;;;;;16.38;10.45;;;;;;;;;;5053246;28;20544;-68
2022/02/18 01:43:00;;;;;;;20.25;10.13;;;;;;;;;;5053131;28;20490;-69
2022/02/18 01:45:26;;;;;;;24.30;15.82;;;;;;;;;;5053171;28;20036;-71
2022/02/18 01:47:53;;;;;;;24.08;14.52;;;;;;;;;;5053028;28;20021;-71
2022/02/18 01:50:19;;;;;;;20.17;11.40;;;;;;;;;;5053253;28;20379;-73
2022/02/18 01:52:49;;;;;;;19.65;10.93;;;;;;;;;;5052667;28;20032;-72
2022/02/18 01:55:17;;;;;;;20.23;12.07;;;;;;;;;;5052834;28;20043;-71
2022/02/18 01:57:47;;;;;;;16.58;11.23;;;;;;;;;;5052906;28;20120;-72
2022/02/18 02:00:14;;;;;;;8.18;5.22;;;;;;;;;;5052878;28;20490;-72
2022/02/18 02:02:40;;;;;;;19.15;10.85;;;;;;;;;;5052669;28;20483;-71
2022/02/18 02:05:07;;;;;;;10.02;6.07;;;;;;;;;;5056030;28;20086;-71
2022/02/18 02:07:33;;;;;;;9.25;5.75;;;;;;;;;;5056859;28;20518;-69
2022/02/18 02:09:59;;;;;;;10.70;5.95;;;;;;;;;;5057270;28;20025;-69
2022/02/18 02:12:25;;;;;;;12.52;5.88;;;;;;;;;;5056964;28;20109;-68
2022/02/18 02:14:52;;;;;;;14.93;8.43;;;;;;;;;;5056723;28;20036;-67
2022/02/18 02:17:18;;;;;;;10.35;6.40;;;;;;;;;;5056916;28;20028;-65
2022/02/18 02:19:45;;;;;;;11.65;7.15;;;;;;;;;;5056824;28;20427;-68
2022/02/18 02:22:12;;;;;;;9.82;6.45;;;;;;;;;;5056161;28;20518;-70
2022/02/18 02:24:38;;;;;;;13.13;7.80;;;;;;;;;;5056654;28;20036;-67
2022/02/18 02:27:04;;;;;;;13.98;8.80;;;;;;;;;;5056652;28;20073;-66
2022/02/18 02:29:29;;;;;;;16.08;9.55;;;333.00;2329.60;;;;;;5056507;28;20021;-66
2022/02/18 02:31:58;;;;;;;17.63;9.40;;;332.90;2329.60;;;;;;5056612;28;20021;-69
2022/02/18 02:34:24;;;;;;;14.30;9.48;;;332.90;2329.60;;;;;;5056308;28;20029;-66
2022/02/18 02:36:50;;;;;;;16.33;9.00;;;;;;;;;;5056294;28;20032;-66
2022/02/18 02:39:17;;;;;;;15.90;8.40;;;;;;;;;;5056686;28;20413;-68
2022/02/18 02:41:42;;;;;;;10.77;5.95;;;307.50;2304.00;;;;;;5056379;28;20118;-69
2022/02/18 02:44:08;;;;;;;10.55;4.93;;;307.50;2304.00;;;;;;5056391;28;20052;-68
2022/02/18 02:46:37;;;;;;;7.78;3.90;;;307.60;2304.00;;;;;;5056287;28;20025;-66
2022/02/18 02:49:03;;;;;;;10.30;4.22;;;;;;;;;;5056323;28;20029;-68
2022/02/18 02:51:30;;;;;;;7.00;3.03;;;;;;;;;;5056169;28;20013;-69
2022/02/18 02:53:56;;;;;;;7.95;4.00;;;;;;;;;;5056034;28;20032;-69
2022/02/18 02:56:22;;;;;;;7.53;4.38;;;;;;;;;;5056236;28;20033;-61
2022/02/18 02:58:49;;;;;;;8.68;3.47;;;;;;;;;;5056104;28;20025;-67
2022/02/18 03:01:15;;;;;;;8.80;3.95;;;;;;;;;;5055979;28;20029;-69
2022/02/18 03:03:41;;;;;;;11.63;5.68;;;;;;;;;;5056158;28;20083;-70
2022/02/18 03:06:07;;;;;;;11.13;4.65;;;;;;;;;;5055744;28;20021;-70
2022/02/18 03:08:33;;;;;;;8.35;4.70;;;307.60;2304.00;;;;;;5055677;28;20528;-71
2022/02/18 03:11:17;;;;;;;9.18;4.75;;;307.60;2304.00;;;;;;5037522;28;20037;-71
2022/02/18 03:13:51;;;;;;;9.10;4.50;;;307.50;2304.00;;;;;;5055857;28;20036;-68
2022/02/18 03:16:18;;;;;;;11.30;4.53;;;307.60;2304.00;;;;;;5055682;28;20065;-69
2022/02/18 03:18:44;;;;;;;10.55;5.07;;;307.50;2304.00;;;;;;5055615;28;20475;-70
2022/02/18 03:21:11;;;;;;;31.27;16.85;;;307.60;2304.00;;;;;;5055465;28;20064;-70
2022/02/18 03:23:37;;;;;;;14.65;9.68;;;;;;;;;;5055414;28;20025;-72
2022/02/18 03:26:03;;;;;;;10.77;5.82;;;307.40;2304.00;;;;;;5055777;28;20363;-73
2022/02/18 03:28:29;;;;;;;7.43;5.32;;;307.50;2304.00;;;;;;5055594;28;20023;-72
2022/02/18 03:30:55;;;;;;;11.23;6.43;;;307.60;2304.00;;;;;;5055479;28;20592;-74
2022/02/18 03:33:21;;;;;;;11.50;6.20;;;;;;;;;;5037189;28;20119;-72
2022/02/18 03:35:47;;;;;;;8.75;5.00;;;307.70;2304.00;;;;;;5055182;28;20048;-68
2022/02/18 03:38:13;;;;;;;6.85;4.05;;;;;;;;;;5055495;28;20029;-75
2022/02/18 03:40:39;;;;;;;5.85;3.55;;;307.60;2304.00;;;;;;5055390;28;20025;-73
2022/02/18 03:43:05;;;;;;;10.27;4.65;;;307.60;2304.00;;;;;;5055274;28;20095;-64
2022/02/18 03:45:31;;;;;;;12.43;5.60;;;;;;;;;;5055106;28;20029;-69
2022/02/18 03:47:57;;;;;;;9.52;4.93;;;307.80;2304.00;;;;;;5055195;28;20079;-61
2022/02/18 03:50:23;;;;;;;9.50;4.80;;;;;;;;;;5055260;28;20066;-62
2022/02/18 03:52:53;;;;;;;8.30;4.15;;;307.60;2304.00;;;;;;5055183;28;20021;-75
2022/02/18 03:55:20;;;;;;;31.27;15.60;;;307.60;2304.00;;;;;;5055033;28;20112;-69
2022/02/18 03:57:46;;;;;;;10.13;5.63;;;;;;;;;;5054832;28;20032;-70
2022/02/18 04:00:12;;;;;;;8.48;4.20;;;;;;;;;;5054940;28;20471;-65
2022/02/18 04:02:38;;;;;;;8.82;4.53;;;;;;;;;;5054757;28;20036;-70
2022/02/18 04:05:04;;;;;;;8.93;4.90;;;307.60;2304.00;;;;;;5054794;28;20029;-62
2022/02/18 04:07:31;;;;;;;9.05;4.75;;;;;;;;;;5054767;28;20383;-66
2022/02/18 04:09:57;;;;;;;11.00;4.97;;;;;;;;;;5054732;28;20370;-66
2022/02/18 04:12:23;;;;;;;13.18;6.53;;;;;;;;;;5054714;28;20056;-67
2022/02/18 04:14:49;;;;;;;24.05;16.35;;;;;;;;;;5054384;28;20039;-66
2022/02/18 04:17:15;;;;;;;13.00;7.32;;;;;;;;;;5054573;28;20029;-66
2022/02/18 04:19:41;;;;;;;12.45;8.02;;;;;;;;;;5054647;28;20163;-68
2022/02/18 04:22:07;;;;;;;13.20;8.98;;;;;;;;;;5054288;28;20465;-68
2022/02/18 04:24:33;;;;;;;18.10;9.90;;;;;;;;;;5054338;28;20039;-67
2022/02/18 04:26:59;;;;;;;33.25;21.02;;;;;;;;;;5053994;28;20020;-68
2022/02/18 04:29:25;;;;;;;39.17;26.65;;;;;;;;;;5054357;28;20021;-70
2022/02/18 04:31:52;;;;;;;46.25;30.52;;;;;;;;;;5054409;28;20025;-68
2022/02/18 04:34:18;;;;;;;38.70;24.17;;;;;;;;;;5054100;28;20025;-68
2022/02/18 04:36:44;;;;;;;57.58;34.78;;;;;;;;;;5054413;28;20024;-69
2022/02/18 04:39:10;;;;;;;36.97;22.88;;;;;;;;;;5054146;28;20017;-69
2022/02/18 04:41:38;;;;;;;27.48;15.93;;;;;;;;;;5054024;28;20032;-67
2022/02/18 04:44:04;;;;;;;32.47;19.77;;;;;;;;;;5054009;28;20037;-68
2022/02/18 04:46:30;;;;;;;33.28;20.98;;;;;;;;;;5054051;28;20033;-70
2022/02/18 04:48:57;;;;;;;31.88;18.58;;;;;;;;;;5053983;28;20055;-71
2022/02/18 04:51:23;;;;;;;34.25;21.85;;;;;;;;;;5054105;28;20104;-72
2022/02/18 04:53:49;;;;;;;48.42;29.52;;;;;;;;;;5053728;28;20032;-71
2022/02/18 04:56:15;;;;;;;43.35;27.50;;;;;;;;;;5053852;28;20033;-72
2022/02/18 04:58:41;;;;;;;35.47;20.90;;;;;;;;;;5053810;28;20036;-70
2022/02/18 05:01:11;;;;;;;26.85;14.77;;;;;;;;;;5044785;28;20025;-69
2022/02/18 05:03:37;;;;;;;17.17;10.70;;;;;;;;;;5033657;28;20036;-72
2022/02/18 05:06:04;;;;;;;20.50;12.88;;;;;;;;;;5033886;28;20025;-70
2022/02/18 05:08:30;;;;;;;40.78;24.02;;;;;;;;;;5033572;28;20056;-72
2022/02/18 05:10:55;;;;;;;32.58;21.85;;;256.90;2252.80;;;;;;5033641;28;20060;-72
2022/02/18 05:13:21;;;;;;;33.72;20.42;;;256.90;2252.80;;;;;;5033693;28;20049;-81
2022/02/18 05:15:47;;;;;;;31.40;17.95;;;;;;;;;;5033587;28;20091;-75
2022/02/18 05:18:13;;;;;;;31.75;18.25;;;;;;;;;;5033520;28;20101;-75
2022/02/18 05:20:39;;;;;;;32.65;20.10;;;;;;;;;;5033219;28;20022;-67
2022/02/18 05:23:06;;;;;;;40.03;24.30;;;;;;;;;;5033225;28;20049;-68
2022/02/18 05:25:32;;;;;;;37.05;24.77;;;;;;;;;;5033381;28;20021;-70
2022/02/18 05:28:04;;;;;;;51.00;31.25;;;;;;;;;;5033466;28;20021;-71
2022/02/18 05:30:33;;;;;;;48.22;31.88;;;;;;;;;;5033236;28;20464;-69
2022/02/18 05:32:58;;;;;;;47.88;30.15;;;281.70;2278.40;;;;;;5033225;28;20491;-71
2022/02/18 05:35:24;;;;;;;53.53;31.88;;;281.70;2278.40;;;;;;5032713;28;20037;-70
2022/02/18 05:37:50;;;;;;;46.80;30.65;;;;;;;;;;5032831;28;20029;-71
2022/02/18 05:40:16;;;;;;;35.58;24.17;;;;;;;;;;5032654;28;20025;-66
2022/02/18 05:42:42;;;;;;;37.42;24.08;;;;;;;;;;5033047;28;20055;-72
2022/02/18 05:45:09;;;;;;;46.75;27.58;;;;;;;;;;5033089;28;20067;-73
2022/02/18 05:47:35;;;;;;;49.92;29.33;;;;;;;;;;5033078;28;20018;-68
2022/02/18 05:50:08;;;;;;;51.80;32.00;;;;;;;;;;5032944;28;20041;-69
2022/02/18 05:52:35;;;;;;;46.58;29.70;;;;;;;;;;5015194;28;20022;-70
2022/02/18 05:55:01;;;;;;;55.78;33.88;;;;;;;;;;5032794;28;20083;-68
2022/02/18 05:57:27;;;;;;;58.72;35.70;;;256.60;2252.80;;;;;;5032952;28;20022;-69
2022/02/18 05:59:52;;;;;;;46.78;28.45;;;256.60;2252.80;;;;;;5032955;28;20034;-69
2022/02/18 06:02:18;;;;;;;53.55;30.80;;;256.80;2252.80;;;;;;5051172;28;20487;-72
2022/02/18 06:04:44;;;;;;;72.32;46.10;;;;;;;;;;5052746;28;20112;-68
2022/02/18 06:07:10;;;;;;;76.88;46.95;;;;;;;;;;5052793;28;20102;-68
2022/02/18 06:09:36;;;;;;;66.43;41.03;;;256.60;2252.80;;;;;;5052773;28;20033;-69
2022/02/18 06:12:02;;;;;;;71.93;42.47;;;;;;;;;;5052592;28;20036;-68
2022/02/18 06:14:28;;;;;;;74.97;46.67;;;;;;;;;;5052635;28;20456;-71
2022/02/18 06:16:54;;;;;;;71.35;43.58;;;256.90;2252.80;;;;;;5037364;28;20045;-69
2022/02/18 06:19:20;;;;;;;88.30;57.88;;;;;;;;;;5032603;28;20099;-69
2022/02/18 06:21:46;;;;;;;78.60;49.17;;;;;;;;;;5032345;28;20103;-67
2022/02/18 06:24:12;;;;;;;72.95;43.25;;;;;;;;;;5032660;28;20018;-71
2022/02/18 06:26:38;;;;;;;82.22;48.95;;;;;;;;;;5032667;28;20037;-68
2022/02/18 06:29:04;;;;;;;82.35;57.13;;;;;;;;;;5032722;28;20022;-68
2022/02/18 06:31:30;;;;;;;75.15;49.38;;;;;;;;;;5032480;28;20030;-70
2022/02/18 06:33:56;;;;;;;70.20;43.87;;;;;;;;;;5032586;28;20029;-66
2022/02/18 06:36:23;;;;;;;71.25;45.45;;;;;;;;;;5043020;28;20052;-69
2022/02/18 06:38:49;;;;;;;78.47;50.83;;;;;;;;;;5051770;28;20021;-69
2022/02/18 06:41:15;;;;;;;92.15;61.63;;;256.90;2252.80;;;;;;5051686;28;20017;-71
2022/02/18 06:43:41;;;;;;;103.10;68.07;;;256.90;2252.80;;;;;;5048981;28;20025;-71
2022/02/18 06:46:06;;;;;;;87.55;66.97;;;281.60;2278.40;;;;;;5051500;28;20039;-70
2022/02/18 06:48:33;;;;;;;71.28;47.30;;;;;;;;;;5051483;28;20096;-74
2022/02/18 06:50:59;;;;;;;67.53;47.97;;;;;;;;;;5051444;28;20013;-72
2022/02/18 06:53:25;;;;;;;70.78;51.83;;;;;;;;;;5052749;28;20025;-72
2022/02/18 06:55:52;;;;;;;80.63;53.28;;;;;;;;;;5055085;28;20467;-71
2022/02/18 06:58:18;;;;;;;78.75;47.70;;;;;;;;;;5055232;28;20386;-71
2022/02/18 07:00:45;;;;;;;95.85;61.60;;;;;;;;;;5055241;28;20032;-73
2022/02/18 07:03:11;;;;;;;103.68;79.63;;;;;;;;;;5052383;28;20028;-78
2022/02/18 07:05:37;;;;;;;79.85;50.17;;;307.20;2304.00;;;;;;5049923;28;20475;-72
2022/02/18 07:08:03;;;;;;;80.85;48.83;;;307.30;2304.00;;;;;;5052130;28;20027;-69
2022/02/18 07:10:29;;;;;;;86.13;53.40;;;;;;;;;;5054923;28;20101;-66
2022/02/18 07:12:56;;;;;;;98.72;64.85;;;;;;;;;;5054909;28;20028;-70
2022/02/18 07:15:24;;;;;;;104.63;71.28;;;;;;;;;;5055079;28;20491;-67
2022/02/18 07:17:50;;;;;;;94.93;62.42;;;;;;;;;;5055468;28;20021;-70
2022/02/18 07:20:17;;;;;;;77.47;50.75;;;307.80;2304.00;;;;;;5055272;28;20025;-67
2022/02/18 07:22:43;;;;;;;74.60;51.75;;;307.80;2304.00;;;;;;5054102;28;20041;-67
2022/02/18 07:25:10;;;;;;;78.47;53.63;;;;;;;;;;5037291;28;20075;-67
2022/02/18 07:27:36;;;;;;;74.30;50.08;;;;;;;;;;5035231;28;20395;-67
2022/02/18 07:30:04;;;;;;;78.35;51.95;;;;;;;;;;5035080;28;20032;-66
2022/02/18 07:32:30;;;;;;;74.53;50.38;;;;;;;;;;5035333;28;20144;-67
2022/02/18 07:34:56;;;;;;;68.22;46.53;;;;;;;;;;5034984;28;20041;-66
2022/02/18 07:37:22;;;;;;;75.05;46.58;;;;;;;;;;5035082;28;20037;-67
2022/02/18 07:39:48;;;;;;;74.90;52.42;;;;;;;;;;5035193;28;20519;-68
2022/02/18 07:42:14;;;;;;;80.05;51.38;;;;;;;;;;5035332;28;20379;-68
2022/02/18 07:44:40;;;;;;;67.45;46.50;;;;;;;;;;5034987;28;20022;-66
2022/02/18 07:47:06;;;;;;;68.50;46.25;;;;;;;;;;5034985;28;20021;-67
2022/02/18 07:49:33;;;;;;;57.95;39.00;;;;;;;;;;5034789;28;20026;-68
2022/02/18 07:51:59;;;;;;;63.28;40.80;;;;;;;;;;5034722;28;20021;-65
2022/02/18 07:54:25;;;;;;;52.50;36.58;;;;;;;;;;5034610;28;20021;-64
2022/02/18 07:56:51;;;;;;;39.35;27.75;;;359.30;2099.20;;;;;;5034785;28;20092;-67
2022/02/18 07:59:17;;;;;;;38.28;26.10;;;;;;;;;;5034898;28;20030;-68
2022/02/18 08:01:43;;;;;;;57.42;37.80;;;;;;;;;;5033744;28;20025;-67
2022/02/18 08:04:09;;;;;;;45.92;29.50;;;;;;;;;;5035137;28;20025;-68
2022/02/18 08:06:35;;;;;;;52.40;34.22;;;;;;;;;;5034586;28;20151;-68
2022/02/18 08:09:02;;;;;;;48.63;31.58;;;;;;;;;;5034538;28;20021;-67
2022/02/18 08:11:28;;;;;;;31.92;20.77;;;;;;;;;;5034480;28;20472;-68
2022/02/18 08:13:54;;;;;;;34.28;23.75;;;;;;;;;;5034542;28;20025;-68
2022/02/18 08:16:20;;;;;;;37.15;22.90;;;384.90;1715.20;;;;;;5034291;28;20120;-67
2022/02/18 08:18:46;;;;;;;43.35;26.35;;;384.90;1715.20;;;;;;5034341;28;20095;-67
2022/02/18 08:21:12;;;;;;;43.55;26.98;;;409.70;1689.60;;;;;;5033901;28;20029;-67
2022/02/18 08:23:39;;;;;;;84.13;46.08;;;409.90;1664.00;;;;;;5034294;28;20025;-66
2022/02/18 08:26:05;;;;;;;46.85;28.80;;;;;;;;;;5034139;28;20483;-68
2022/02/18 08:28:31;;;;;;;73.30;56.40;;;410.40;1510.40;;;;;;5034163;28;20029;-66
2022/02/18 08:30:56;;;;;;;19.17;12.10;;;410.50;1484.80;;;;;;5034135;28;20029;-66
2022/02/18 08:33:22;;;;;;;14.15;8.27;;;435.20;1408.00;;;;;;5034473;28;20021;-67
2022/02/18 08:35:48;;;;;;;10.82;6.13;;;;;;;;;;5034015;28;20037;-67
2022/02/18 08:38:14;;;;;;;24.63;14.75;;;435.50;1305.60;;;;;;5034078;28;20018;-66
2022/02/18 08:40:41;;;;;;;16.00;8.88;;;435.50;1305.60;;;;;;5034183;28;20025;-65
2022/02/18 08:43:08;;;;;;;8.10;4.80;;;435.50;1254.40;;;;;;5033897;28;20464;-66
2022/02/18 08:45:34;;;;;;;14.38;7.68;;;;;;;;;;5033786;28;20502;-67
2022/02/18 08:48:00;;;;;;;25.80;16.35;;;;;;;;;;5033677;28;20483;-65
2022/02/18 08:50:27;;;;;;;6.35;3.97;;;;;;;;;;5033695;28;20026;-67
2022/02/18 08:52:54;;;;;;;11.23;5.13;;;;;;;;;;5033525;28;20447;-66
2022/02/18 08:55:21;;;;;;;15.30;8.40;;;;;;;;;;5033492;28;20421;-67
2022/02/18 08:57:48;;;;;;;10.27;5.70;;;;;;;;;;5033474;28;20480;-68
2022/02/18 09:00:17;;;;;;;14.05;6.18;;;;;;;;;;5033478;28;20029;-67
2022/02/18 09:02:43;;;;;;;11.93;6.00;;;;;;;;;;5033385;28;20102;-68
2022/02/18 09:05:10;;;;;;;15.65;8.38;;;;;;;;;;5033589;28;20033;-67
2022/02/18 09:07:36;;;;;;;15.23;9.32;;;;;;;;;;5033219;28;20388;-66
2022/02/18 09:10:03;;;;;;;16.13;9.70;;;;;;;;;;5033389;28;20487;-67
2022/02/18 09:12:30;;;;;;;9.45;5.15;;;;;;;;;;5033178;28;20369;-67
2022/02/18 09:14:56;;;;;;;14.68;8.68;;;;;;;;;;5033128;28;20033;-67
2022/02/18 09:17:22;;;;;;;17.95;10.73;;;461.30;1177.60;;;;;;5033183;28;20030;-65
2022/02/18 09:19:51;;;;;;;9.52;5.70;;;461.40;1203.20;;;;;;5033101;28;20530;-66
2022/02/18 09:22:18;;;;;;;14.18;7.07;;;461.70;1152.00;;;;;;5032721;28;20053;-66
2022/02/18 09:24:44;;;;;;;14.80;8.88;;;;;;;;;;5032933;28;20460;-67
2022/02/18 09:27:10;;;;;;;19.15;11.55;;;486.60;1177.60;;;;;;5033154;28;20030;-66
2022/02/18 09:29:36;;;;;;;27.70;13.05;;;;;;;;;;5033071;28;20095;-67
2022/02/18 09:32:04;;;;;;;19.52;12.07;;;487.10;1126.40;;;;;;5033085;28;20033;-66
2022/02/18 09:34:30;;;;;;;19.85;11.60;;;;;;;;;;5032870;28;20029;-68
2022/02/18 09:36:56;;;;;;;13.23;5.90;;;512.40;1075.20;;;;;;5032822;28;20449;-66
2022/02/18 09:39:22;;;;;;;13.05;5.85;;;;;;;;;;5032939;28;20100;-66
2022/02/18 09:41:49;;;;;;;14.80;6.03;;;;;;;;;;5032823;28;20025;-67
2022/02/18 09:44:15;;;;;;;10.43;5.03;;;;;;;;;;5032932;28;20033;-67
2022/02/18 09:46:42;;;;;;;28.38;9.90;;;538.40;947.20;;;;;;5032866;28;20544;-67
2022/02/18 09:49:09;;;;;;;13.93;5.93;;;;;;;;;;5033333;28;20104;-68
2022/02/18 09:51:35;;;;;;;15.30;4.38;;;;;;;;;;5032517;28;20455;-67
2022/02/18 09:54:01;;;;;;;14.35;5.70;;;563.90;947.20;;;;;;5032628;28;20491;-66
2022/02/18 09:56:32;;;;;;;8.70;5.90;;;;;;;;;;5032628;28;20033;-68
2022/02/18 09:59:03;;;;;;;33.53;17.95;;;563.80;921.60;;;;;;5032782;28;20538;-66
2022/02/18 10:01:31;;;;;;;27.38;12.85;;;564.00;947.20;;;;;;5032462;28;20407;-67
2022/02/18 10:03:59;;;;;;;31.42;11.95;;;;;;;;;;5033265;28;20410;-68
2022/02/18 10:06:27;;;;;;;9.48;4.45;;;;;;;;;;5032486;28;20032;-67
2022/02/18 10:08:54;;;;;;;52.55;23.92;;;589.00;896.00;;;;;;5032814;28;20395;-66
2022/02/18 10:11:20;;;;;;;35.33;8.98;;;;;;;;;;5032625;28;20017;-66
2022/02/18 10:13:47;;;;;;;12.73;6.30;;;;;;;;;;5032486;28;20022;-67
2022/02/18 10:16:20;;;;;;;7.93;4.35;;;;;;;;;;5032469;28;20087;-68
2022/02/18 10:18:59;;;;;;;10.77;7.07;;;614.70;819.20;;;;;;5032273;28;20026;-66
2022/02/18 10:21:32;;;;;;;13.13;4.43;;;;;;;;;;5032226;28;20048;-70
2022/02/18 10:24:08;;;;;;;9.18;4.13;;;;;;;;;;5014502;28;20097;-66
2022/02/18 10:26:37;;;;;;;22.35;9.07;;;;;;;;;;5036244;28;20041;-66
2022/02/18 10:29:03;;;;;;;16.23;6.30;;;;;;;;;;5018682;28;20029;-68
2022/02/18 10:31:29;;;;;;;33.05;13.77;;;;;;;;;;5036037;28;20029;-68
2022/02/18 10:34:01;;;;;;;46.28;12.32;;;;;;;;;;5036328;28;20036;-67
2022/02/18 10:36:40;;;;;;;41.65;18.85;;;640.50;768.00;;;;;;5036114;28;20029;-67
2022/02/18 10:39:26;;;;;;;15.68;5.07;;;640.80;768.00;;;;;;5036194;28;20033;-67
2022/02/18 10:41:57;;;;;;;50.78;26.85;;;665.70;793.60;;;;;;5036042;28;20030;-67
2022/02/18 10:44:25;;;;;;;23.80;8.63;;;666.00;768.00;;;;;;5036107;28;20025;-67
2022/02/18 10:46:55;;;;;;;36.80;8.45;;;;;;;;;;5018438;28;20543;-67
2022/02/18 10:49:38;;;;;;;51.47;10.48;;;;;;;;;;5035922;28;20030;-68
2022/02/18 10:52:14;;;;;;;31.17;8.85;;;;;;;;;;5036060;28;20064;-68
2022/02/18 10:54:40;;;;;;;51.60;11.68;;;;;;;;;;5035739;28;20021;-68
2022/02/18 10:57:12;;;;;;;12.30;6.18;;;;;;;;;;5035798;28;20566;-66
2022/02/18 10:59:38;;;;;;;12.25;5.88;;;;;;;;;;5035734;28;20557;-67
2022/02/18 11:02:04;;;;;;;9.75;4.78;;;;;;;;;;5035680;28;20064;-66
2022/02/18 11:04:31;;;;;;;9.18;4.03;;;;;;;;;;5017551;28;20553;-66
2022/02/18 11:07:11;;;;;;;19.38;7.90;;;;;;;;;;5035650;28;20025;-67
2022/02/18 11:09:37;;;;;;;18.05;6.47;;;;;;;;;;5035701;28;20383;-68
2022/02/18 11:12:07;;;;;;;12.27;5.65;;;;;;;;;;5035516;28;20048;-67
2022/02/18 11:14:34;;;;;;;16.98;9.10;;;;;;;;;;5017601;28;20033;-67
2022/02/18 11:17:01;;;;;;;11.75;6.30;;;;;;;;;;5035153;28;20049;-65
2022/02/18 11:19:27;;;;;;;12.35;5.15;;;;;;;;;;5035504;28;20029;-66
2022/02/18 11:21:52;;;;;;;10.63;5.57;;;717.50;691.20;;;;;;5035144;28;20052;-66
2022/02/18 11:24:21;;;;;;;22.30;7.88;;;717.70;665.60;;;;;;5017026;28;20026;-65
2022/02/18 11:26:48;;;;;;;17.33;7.32;;;717.70;691.20;;;;;;5035355;28;20039;-66
2022/02/18 11:29:14;;;;;;;37.10;14.05;;;717.70;691.20;;;;;;5035163;28;20029;-68
2022/02/18 11:31:42;;;;;;;27.20;11.32;;;717.40;691.20;;;;;;5035347;28;20091;-67
2022/02/18 11:34:26;;;;;;;22.17;9.00;;;;;;;;;;5035227;28;20029;-69
2022/02/18 11:37:15;;;;;;;24.00;9.70;;;;;;;;;;5033867;28;20026;-67
2022/02/18 11:39:59;;;;;;;28.75;9.30;;;;;;;;;;5035067;28;20025;-67
2022/02/18 11:42:31;;;;;;;33.08;8.05;;;;;;;;;;5035371;28;20041;-68
2022/02/18 11:44:58;;;;;;;18.85;8.88;;;;;;;;;;5034811;28;20034;-67
2022/02/18 11:47:27;;;;;;;15.15;7.15;;;;;;;;;;5035025;28;20029;-68
2022/02/18 11:49:53;;;;;;;44.70;9.88;;;;;;;;;;5034920;28;20142;-68
2022/02/18 11:52:20;;;;;;;12.75;5.97;;;;;;;;;;5034979;28;20035;-68
2022/02/18 11:54:47;;;;;;;10.32;4.57;;;;;;;;;;5034683;28;20124;-68
2022/02/18 11:57:16;;;;;;;24.88;6.50;;;;;;;;;;5035090;28;20045;-68
2022/02/18 12:00:01;;;;;;;33.67;11.60;;;;;;;;;;5034582;28;20033;-68
2022/02/18 12:02:37;;;;;;;82.50;15.32;;;666.30;742.40;;;;;;5034599;28;20036;-67
2022/02/18 12:05:08;;;;;;;110.00;16.98;;;666.00;768.00;;;;;;5034578;28;20084;-66
2022/02/18 12:07:37;;;;;;;14.25;5.15;;;;;;;;;;5034702;28;20096;-66
2022/02/18 12:10:05;;;;;;;24.95;7.53;;;;;;;;;;5034431;28;20033;-67
2022/02/18 12:12:35;;;;;;;38.38;10.43;;;;;;;;;;5034327;28;20100;-67
2022/02/18 12:15:27;;;;;;;35.55;9.07;;;640.40;768.00;;;;;;5034298;28;20072;-67
2022/02/18 12:18:02;;;;;;;23.45;7.65;;;;;;;;;;5034292;28;20025;-68
2022/02/18 12:20:30;;;;;;;17.13;5.28;;;;;;;;;;5034499;28;20049;-67
2022/02/18 12:22:57;;;;;;;29.08;7.53;;;640.00;793.60;;;;;;5033777;28;20431;-67
2022/02/18 12:25:26;;;;;;;17.85;6.72;;;615.20;793.60;;;;;;5034340;28;20088;-66
2022/02/18 12:28:13;;;;;;;41.88;9.80;;;615.30;819.20;;;;;;5034161;28;20033;-66
2022/02/18 12:30:40;;;;;;;38.67;15.23;;;615.20;819.20;;;;;;5026698;28;20556;-65
2022/02/18 12:33:07;;;;;;;39.00;18.73;;;;;;;;;;5016273;28;20040;-67
2022/02/18 12:35:34;;;;;;;64.03;17.15;;;615.20;793.60;;;;;;5033871;28;20088;-67
2022/02/18 12:38:01;;;;;;;30.75;9.52;;;;;;;;;;5034311;28;20032;-66
2022/02/18 12:40:28;;;;;;;21.20;6.53;;;;;;;;;;5033940;28;20484;-68
2022/02/18 12:42:58;;;;;;;13.35;5.25;;;;;;;;;;5034147;28;20412;-65
2022/02/18 12:45:34;;;;;;;29.65;7.47;;;;;;;;;;5033905;28;20483;-65
2022/02/18 12:48:00;;;;;;;22.13;6.00;;;;;;;;;;5033423;28;20025;-68
2022/02/18 12:50:31;;;;;;;20.92;12.00;;;;;;;;;;5034040;28;20175;-66
2022/02/18 12:52:58;;;;;;;18.67;5.82;;;;;;;;;;5033736;28;20021;-66
2022/02/18 12:55:24;;;;;;;27.27;7.13;;;;;;;;;;5033631;28;20080;-66
2022/02/18 12:57:51;;;;;;;24.63;7.47;;;;;;;;;;5033654;28;20460;-66
2022/02/18 13:00:18;;;;;;;21.25;7.40;;;;;;;;;;5033496;28;20048;-66
2022/02/18 13:02:48;;;;;;;31.50;16.50;;;614.90;793.60;;;;;;5033724;28;20029;-66
2022/02/18 13:05:18;;;;;;;26.38;13.02;;;614.90;819.20;;;;;;5033994;28;20103;-66
2022/02/18 13:07:49;;;;;;;72.30;54.63;;;615.00;819.20;;;;;;5033398;28;20036;-67
2022/02/18 13:10:15;;;;;;;;;;;;;;;;;;5033965;28;20022;-67
2022/02/18 13:12:43;;;;;;;17.85;10.65;;;;;;;;;;5033438;28;19912;-67
2022/02/18 13:15:10;;;;;;;12.77;7.07;;;;;;;;;;5033380;28;20037;-66
2022/02/18 13:17:36;;;;;;;17.92;8.52;;;;;;;;;;5033600;28;20028;-67
2022/02/18 13:20:03;;;;;;;24.30;8.10;;;;;;;;;;5033309;28;20472;-67
2022/02/18 13:22:37;;;;;;;12.80;5.05;;;;;;;;;;5015424;28;20496;-67
2022/02/18 13:25:19;;;;;;;22.95;7.65;;;;;;;;;;5033215;28;20353;-66
2022/02/18 13:27:47;;;;;;;22.27;6.85;;;;;;;;;;5033155;28;20049;-66
2022/02/18 13:30:13;;;;;;;16.02;5.65;;;;;;;;;;5033227;28;20029;-66
2022/02/18 13:32:39;;;;;;;28.10;6.93;;;;;;;;;;5033179;28;20037;-67
2022/02/18 13:35:06;;;;;;;11.35;6.55;;;;;;;;;;5033063;28;20499;-66
2022/02/18 13:37:35;;;;;;;10.85;5.32;;;;;;;;;;5033053;28;20033;-65
2022/02/18 13:40:01;;;;;;;38.88;14.77;;;;;;;;;;5033113;28;20108;-68
2022/02/18 13:42:27;;;;;;;14.38;7.20;;;614.60;819.20;;;;;;5032954;28;20022;-67
2022/02/18 13:45:00;;;;;;;17.77;7.63;;;;;;;;;;5033004;28;20029;-65